Time;durP1;ratioP1;P1;durP2;ratioP2;P2;SDS_P1;SDS_P2;PMS_P1;PMS_P2;Temp;Humidity;BMP_temperature;BMP_pressure;BME280_temperature;BME280_humidity;BME280_pressure;Samples;Min_cycle;Max_cycle;Signal;HPM_P1;HPM_P2
2021/10/15 00:02:21;;;;;;;13.27;8.80;;;11.50;99.90;;;;;;5040849;28;20556;-70
2021/10/15 00:04:48;;;;;;;19.20;10.32;;;11.50;99.90;;;;;;5042666;28;20528;-71
2021/10/15 00:07:15;;;;;;;17.40;9.95;;;11.50;99.90;;;;;;5061179;28;20127;-70
2021/10/15 00:09:42;;;;;;;18.75;11.95;;;11.50;99.90;;;;;;5058947;28;20059;-72
2021/10/15 00:12:09;;;;;;;22.55;13.18;;;11.50;99.90;;;;;;5062643;28;20130;-72
2021/10/15 00:14:36;;;;;;;23.70;13.70;;;11.50;99.90;;;;;;5079419;28;20479;-69
2021/10/15 00:17:03;;;;;;;23.40;13.25;;;11.50;99.90;;;;;;5076808;28;20262;-70
2021/10/15 00:19:30;;;;;;;31.48;15.35;;;11.60;99.90;;;;;;5081570;28;20036;-69
2021/10/15 00:21:57;;;;;;;32.92;17.05;;;11.60;99.90;;;;;;5060580;28;20047;-71
2021/10/15 00:24:24;;;;;;;34.58;17.33;;;11.50;99.90;;;;;;5066338;28;20362;-72
2021/10/15 00:26:51;;;;;;;27.50;16.30;;;11.50;99.90;;;;;;5067742;28;20661;-70
2021/10/15 00:29:18;;;;;;;26.15;14.27;;;11.50;99.90;;;;;;5067176;28;20047;-72
2021/10/15 00:31:45;;;;;;;25.75;14.10;;;11.50;99.90;;;;;;5067147;28;20270;-72
2021/10/15 00:34:14;;;;;;;23.33;12.85;;;11.40;99.90;;;;;;5068158;28;20055;-72
2021/10/15 00:36:41;;;;;;;28.50;14.95;;;11.50;99.90;;;;;;5050413;28;20071;-71
2021/10/15 00:39:08;;;;;;;26.02;14.73;;;11.50;99.90;;;;;;5036738;28;20089;-70
2021/10/15 00:41:35;;;;;;;24.52;12.00;;;11.50;99.90;;;;;;5028836;28;20198;-70
2021/10/15 00:44:11;;;;;;;25.60;13.70;;;11.50;99.90;;;;;;5046242;28;20289;-69
2021/10/15 00:46:40;;;;;;;21.35;11.50;;;11.40;99.90;;;;;;5045831;28;20090;-69
2021/10/15 00:49:09;;;;;;;19.58;11.95;;;11.50;99.90;;;;;;5046769;28;20135;-70
2021/10/15 00:51:36;;;;;;;19.80;12.05;;;11.50;99.90;;;;;;5046846;28;20121;-70
2021/10/15 00:54:04;;;;;;;26.92;12.90;;;11.50;99.90;;;;;;5046659;28;20048;-70
2021/10/15 00:56:32;;;;;;;25.10;12.85;;;11.50;99.90;;;;;;5045633;28;20547;-69
2021/10/15 00:59:01;;;;;;;21.63;11.27;;;11.50;99.90;;;;;;5047501;28;20143;-69
2021/10/15 01:01:29;;;;;;;17.70;10.93;;;11.40;99.90;;;;;;5060106;28;20330;-70
2021/10/15 01:04:01;;;;;;;18.55;11.02;;;11.40;99.90;;;;;;5047449;28;20087;-70
2021/10/15 01:06:29;;;;;;;21.58;10.75;;;11.50;99.90;;;;;;5044269;28;20225;-70
2021/10/15 01:08:57;;;;;;;18.88;10.68;;;11.40;99.90;;;;;;5042984;28;20072;-71
2021/10/15 01:11:24;;;;;;;18.88;10.48;;;11.40;99.90;;;;;;5044793;28;20472;-71
2021/10/15 01:13:52;;;;;;;19.88;10.63;;;11.40;99.90;;;;;;5064593;28;20052;-71
2021/10/15 01:16:28;;;;;;;18.48;11.52;;;11.40;99.90;;;;;;5045099;28;20519;-70
2021/10/15 01:18:57;;;;;;;16.38;9.85;;;11.40;99.90;;;;;;5042903;28;20044;-70
2021/10/15 01:21:24;;;;;;;19.48;10.20;;;11.40;99.90;;;;;;5045651;28;20050;-70
2021/10/15 01:23:52;;;;;;;22.50;10.20;;;11.40;99.90;;;;;;5029555;28;20052;-71
2021/10/15 01:26:20;;;;;;;18.35;9.85;;;11.40;99.90;;;;;;5026935;28;20124;-70
2021/10/15 01:28:47;;;;;;;18.95;10.02;;;11.40;99.90;;;;;;5046337;28;20047;-71
2021/10/15 01:31:14;;;;;;;20.33;9.88;;;11.40;99.90;;;;;;5060726;28;20051;-71
2021/10/15 01:33:41;;;;;;;16.63;10.02;;;11.40;99.90;;;;;;5063596;28;20070;-71
2021/10/15 01:36:08;;;;;;;17.02;10.15;;;11.40;99.90;;;;;;5062646;28;20075;-70
2021/10/15 01:38:35;;;;;;;17.50;9.68;;;11.40;99.90;;;;;;5052190;28;20075;-70
2021/10/15 01:41:02;;;;;;;18.48;9.93;;;11.30;99.90;;;;;;5046124;28;20098;-71
2021/10/15 01:43:31;;;;;;;16.83;9.50;;;11.30;99.90;;;;;;5039558;28;20071;-70
2021/10/15 01:45:58;;;;;;;15.85;9.30;;;11.30;99.90;;;;;;5060178;28;20067;-71
2021/10/15 01:48:26;;;;;;;17.02;9.05;;;11.30;99.90;;;;;;5031071;28;20101;-69
2021/10/15 01:50:53;;;;;;;14.57;8.75;;;11.30;99.90;;;;;;5046585;28;20197;-70
2021/10/15 01:53:21;;;;;;;16.90;9.88;;;11.30;99.90;;;;;;5029856;28;20120;-71
2021/10/15 01:55:48;;;;;;;15.57;8.60;;;11.20;99.90;;;;;;5054336;28;20047;-70
2021/10/15 01:58:18;;;;;;;14.85;8.05;;;11.30;99.90;;;;;;5063584;28;20048;-70
2021/10/15 02:00:47;;;;;;;17.17;9.35;;;11.20;99.90;;;;;;5046870;28;20131;-70
2021/10/15 02:03:28;;;;;;;14.75;8.77;;;11.20;99.90;;;;;;5046038;28;20098;-70
2021/10/15 02:05:55;;;;;;;17.30;8.90;;;11.20;99.90;;;;;;5065864;28;20120;-71
2021/10/15 02:08:22;;;;;;;17.58;8.50;;;11.20;99.90;;;;;;5045379;28;20267;-71
2021/10/15 02:10:48;;;;;;;15.00;8.98;;;11.20;99.90;;;;;;5045687;28;20048;-71
2021/10/15 02:13:15;;;;;;;20.20;9.95;;;11.20;99.90;;;;;;5048960;28;20106;-71
2021/10/15 02:15:42;;;;;;;11.52;8.00;;;11.20;99.90;;;;;;5058650;28;20052;-73
2021/10/15 02:18:10;;;;;;;15.55;7.72;;;11.20;99.90;;;;;;5030004;28;20136;-71
2021/10/15 02:20:38;;;;;;;14.02;7.53;;;11.20;99.90;;;;;;5045028;28;20276;-71
2021/10/15 02:23:05;;;;;;;14.95;8.82;;;11.20;99.90;;;;;;5062840;28;20290;-72
2021/10/15 02:25:32;;;;;;;14.80;8.70;;;11.20;99.90;;;;;;5045716;28;20044;-72
2021/10/15 02:27:59;;;;;;;14.30;8.45;;;11.20;99.90;;;;;;5033329;28;20043;-71
2021/10/15 02:30:26;;;;;;;14.55;8.02;;;11.20;99.90;;;;;;5033436;28;20051;-71
2021/10/15 02:32:54;;;;;;;10.50;8.20;;;11.10;99.90;;;;;;5027721;28;20104;-70
2021/10/15 02:35:21;;;;;;;14.60;8.45;;;11.20;99.90;;;;;;5059249;28;20134;-72
2021/10/15 02:37:48;;;;;;;17.90;8.73;;;11.20;99.90;;;;;;5042528;28;20131;-72
2021/10/15 02:40:16;;;;;;;13.07;8.32;;;11.20;99.90;;;;;;5042411;28;20485;-72
2021/10/15 02:42:43;;;;;;;12.95;7.95;;;11.10;99.90;;;;;;5040686;28;20985;-71
2021/10/15 02:45:10;;;;;;;16.00;7.95;;;11.10;99.90;;;;;;5058853;28;20085;-71
2021/10/15 02:47:37;;;;;;;14.70;8.65;;;11.10;99.90;;;;;;5034713;28;20043;-71
2021/10/15 02:50:06;;;;;;;15.88;8.35;;;11.10;99.90;;;;;;5059943;28;20043;-71
2021/10/15 02:52:33;;;;;;;18.20;8.52;;;11.10;99.90;;;;;;5060005;28;20048;-71
2021/10/15 02:54:59;;;;;;;15.02;8.85;;;11.10;99.90;;;;;;5041815;28;20075;-71
2021/10/15 02:57:26;;;;;;;14.63;7.25;;;11.00;99.90;;;;;;5048706;28;20047;-72
2021/10/15 02:59:54;;;;;;;17.55;8.05;;;11.00;99.90;;;;;;5043378;28;20071;-71
2021/10/15 03:02:21;;;;;;;15.35;8.52;;;11.00;99.90;;;;;;5043525;28;20198;-71
2021/10/15 03:04:48;;;;;;;16.35;8.35;;;11.00;99.90;;;;;;5043785;28;20430;-72
2021/10/15 03:07:15;;;;;;;16.77;9.05;;;11.00;99.90;;;;;;5076056;28;20047;-71
2021/10/15 03:09:42;;;;;;;16.55;7.72;;;11.00;99.90;;;;;;5043281;28;20079;-71
2021/10/15 03:12:09;;;;;;;20.45;8.65;;;10.90;99.90;;;;;;5059478;28;20501;-72
2021/10/15 03:14:36;;;;;;;15.50;8.13;;;10.90;99.90;;;;;;5042619;28;20162;-69
2021/10/15 03:17:04;;;;;;;16.55;7.97;;;10.90;99.90;;;;;;5057966;28;20040;-71
2021/10/15 03:19:31;;;;;;;14.95;8.48;;;10.90;99.90;;;;;;5057821;28;20119;-71
2021/10/15 03:21:57;;;;;;;16.38;8.43;;;10.90;99.90;;;;;;5040072;28;20066;-70
2021/10/15 03:24:24;;;;;;;13.57;7.75;;;10.90;99.90;;;;;;5043866;28;20533;-70
2021/10/15 03:26:51;;;;;;;17.98;7.63;;;10.90;99.90;;;;;;5025983;28;20044;-71
2021/10/15 03:29:18;;;;;;;13.45;7.65;;;10.80;99.90;;;;;;5059882;28;20101;-70
2021/10/15 03:31:45;;;;;;;11.05;8.13;;;10.80;99.90;;;;;;5059172;28;20044;-71
2021/10/15 03:34:12;;;;;;;15.70;7.47;;;10.90;99.90;;;;;;5044521;28;20033;-71
2021/10/15 03:36:39;;;;;;;14.35;6.85;;;10.80;99.90;;;;;;5041417;28;20347;-71
2021/10/15 03:39:06;;;;;;;12.88;7.25;;;10.80;99.90;;;;;;5066744;28;20526;-70
2021/10/15 03:41:33;;;;;;;10.63;6.90;;;10.80;99.90;;;;;;5046681;28;20063;-69
2021/10/15 03:43:59;;;;;;;13.25;7.22;;;10.80;99.90;;;;;;5059859;28;20048;-70
2021/10/15 03:46:26;;;;;;;12.52;6.00;;;10.70;99.90;;;;;;5042738;28;20055;-68
2021/10/15 03:48:53;;;;;;;12.90;7.30;;;10.70;99.90;;;;;;5033482;28;20049;-69
2021/10/15 03:51:20;;;;;;;15.73;6.88;;;10.70;99.90;;;;;;5041312;28;20047;-69
2021/10/15 03:53:47;;;;;;;11.90;5.80;;;10.70;99.90;;;;;;5044566;28;20466;-69
2021/10/15 03:56:14;;;;;;;10.85;6.30;;;10.60;99.90;;;;;;5062675;28;20075;-69
2021/10/15 03:58:41;;;;;;;16.05;6.03;;;10.60;99.90;;;;;;5047526;28;20044;-69
2021/10/15 04:01:08;;;;;;;9.55;5.78;;;10.60;99.90;;;;;;5044793;28;20387;-70
2021/10/15 04:03:35;;;;;;;8.52;6.38;;;10.60;99.90;;;;;;5047204;28;20066;-70
2021/10/15 04:06:02;;;;;;;10.85;6.13;;;10.60;99.90;;;;;;5046292;28;20044;-71
2021/10/15 04:08:29;;;;;;;11.88;6.15;;;10.70;99.90;;;;;;5061521;28;20498;-73
2021/10/15 04:10:58;;;;;;;10.90;6.20;;;10.70;99.90;;;;;;5060716;28;20051;-70
2021/10/15 04:13:25;;;;;;;10.85;6.78;;;10.70;99.90;;;;;;5027655;28;20045;-69
2021/10/15 04:15:52;;;;;;;8.27;6.55;;;10.70;99.90;;;;;;5045555;28;20469;-68
2021/10/15 04:18:19;;;;;;;11.55;6.65;;;10.70;99.90;;;;;;5046642;28;20047;-70
2021/10/15 04:20:46;;;;;;;14.55;6.53;;;10.70;99.90;;;;;;5044611;28;20047;-69
2021/10/15 04:23:13;;;;;;;10.38;6.85;;;10.70;99.90;;;;;;5030948;28;20078;-70
2021/10/15 04:25:39;;;;;;;9.80;6.32;;;10.70;99.90;;;;;;5029795;28;20044;-71
2021/10/15 04:28:06;;;;;;;9.98;6.15;;;10.70;99.90;;;;;;5048007;28;20051;-71
2021/10/15 04:30:33;;;;;;;14.10;7.00;;;10.60;99.90;;;;;;5064320;28;20453;-71
2021/10/15 04:33:00;;;;;;;11.98;6.45;;;10.70;99.90;;;;;;5064780;28;20436;-71
2021/10/15 04:35:27;;;;;;;14.10;6.30;;;10.70;99.90;;;;;;5067454;28;20040;-69
2021/10/15 04:37:54;;;;;;;12.10;6.65;;;10.70;99.90;;;;;;5078881;28;20047;-70
2021/10/15 04:40:21;;;;;;;15.43;7.40;;;10.60;99.90;;;;;;5062109;28;20040;-70
2021/10/15 04:42:48;;;;;;;12.00;7.82;;;10.60;99.90;;;;;;5045630;28;20432;-71
2021/10/15 04:45:15;;;;;;;13.95;7.38;;;10.70;99.90;;;;;;5050202;28;20082;-70
2021/10/15 04:47:42;;;;;;;11.95;7.70;;;10.60;99.90;;;;;;5057944;28;20044;-71
2021/10/15 04:50:09;;;;;;;10.45;8.00;;;10.60;99.90;;;;;;5030762;28;20056;-71
2021/10/15 04:52:37;;;;;;;17.15;7.00;;;10.60;99.90;;;;;;5047215;28;20504;-69
2021/10/15 04:55:05;;;;;;;15.35;7.95;;;10.50;99.90;;;;;;5045224;28;20047;-70
2021/10/15 04:57:32;;;;;;;9.82;7.18;;;10.50;99.90;;;;;;5045407;28;20414;-71
2021/10/15 04:59:58;;;;;;;8.73;6.72;;;10.50;99.90;;;;;;5064478;28;20321;-70
2021/10/15 05:02:25;;;;;;;10.15;7.22;;;10.50;99.90;;;;;;5043848;28;20044;-70
2021/10/15 05:04:52;;;;;;;15.32;7.38;;;10.50;99.90;;;;;;5062558;28;20667;-70
2021/10/15 05:07:23;;;;;;;9.07;6.65;;;10.40;99.90;;;;;;5045646;28;20761;-70
2021/10/15 05:09:50;;;;;;;8.98;6.43;;;10.40;99.90;;;;;;5046526;28;20082;-69
2021/10/15 05:12:17;;;;;;;8.95;6.80;;;10.40;99.90;;;;;;5045016;28;20578;-69
2021/10/15 05:14:45;;;;;;;10.32;7.22;;;10.40;99.90;;;;;;5063333;28;20048;-69
2021/10/15 05:17:11;;;;;;;10.70;6.50;;;10.40;99.90;;;;;;5046577;28;20036;-70
2021/10/15 05:19:40;;;;;;;12.23;6.53;;;10.40;99.90;;;;;;5047038;28;20044;-70
2021/10/15 05:22:07;;;;;;;14.10;7.15;;;10.40;99.90;;;;;;5046673;28;20048;-70
2021/10/15 05:24:34;;;;;;;12.95;7.32;;;10.40;99.90;;;;;;5029791;28;20101;-70
2021/10/15 05:27:00;;;;;;;11.20;8.27;;;10.50;99.90;;;;;;5041918;28;20040;-70
2021/10/15 05:29:27;;;;;;;15.25;8.00;;;10.50;99.90;;;;;;5046829;28;20289;-70
2021/10/15 05:31:54;;;;;;;12.27;7.18;;;10.50;99.90;;;;;;5061707;28;20044;-70
2021/10/15 05:34:21;;;;;;;10.43;7.32;;;10.60;99.90;;;;;;5064006;28;20044;-69
2021/10/15 05:36:48;;;;;;;10.88;7.97;;;10.50;99.90;;;;;;5063464;28;20445;-70
2021/10/15 05:39:16;;;;;;;9.45;7.63;;;10.50;99.90;;;;;;5045377;28;20131;-70
2021/10/15 05:41:43;;;;;;;13.50;9.02;;;10.50;99.90;;;;;;5025201;28;20054;-70
2021/10/15 05:44:09;;;;;;;13.82;8.55;;;10.50;99.90;;;;;;5044155;28;20122;-71
2021/10/15 05:46:36;;;;;;;13.23;8.65;;;10.50;99.90;;;;;;5060634;28;20048;-70
2021/10/15 05:49:07;;;;;;;12.88;8.98;;;10.50;99.90;;;;;;5043595;28;20047;-71
2021/10/15 05:51:39;;;;;;;14.15;8.43;;;10.50;99.90;;;;;;5044489;28;20123;-71
2021/10/15 05:54:08;;;;;;;11.10;8.00;;;10.50;99.90;;;;;;5044177;28;20048;-72
2021/10/15 05:56:45;;;;;;;12.82;8.30;;;10.50;99.90;;;;;;5058679;28;20040;-69
2021/10/15 05:59:12;;;;;;;17.17;9.63;;;10.50;99.90;;;;;;5045199;28;20048;-72
2021/10/15 06:01:40;;;;;;;18.85;8.95;;;10.50;99.90;;;;;;5027180;28;20138;-71
2021/10/15 06:14:12;;;;;;;17.60;9.07;;;10.50;99.90;;;;;;5062831;28;20525;-71
2021/10/15 06:15:11;;;;;;;13.60;9.23;;;10.50;99.90;;;;;;5046524;28;20163;-71
2021/10/15 06:17:43;;;;;;;18.05;8.90;;;10.50;99.90;;;;;;5043309;28;20036;-70
2021/10/15 06:20:11;;;;;;;12.57;9.10;;;10.50;99.90;;;;;;5044934;28;20044;-71
2021/10/15 06:22:38;;;;;;;12.90;8.18;;;10.50;99.90;;;;;;5045329;28;20125;-71
2021/10/15 06:25:05;;;;;;;15.38;9.55;;;10.50;99.90;;;;;;5062972;28;20146;-70
2021/10/15 06:27:32;;;;;;;15.02;10.00;;;10.50;99.90;;;;;;5045852;28;20074;-70
2021/10/15 06:29:59;;;;;;;14.80;9.23;;;10.50;99.90;;;;;;5028826;28;20048;-70
2021/10/15 06:32:26;;;;;;;14.57;8.75;;;10.50;99.90;;;;;;5027038;28;20565;-71
2021/10/15 06:34:52;;;;;;;21.65;8.95;;;10.40;99.90;;;;;;5059678;28;20131;-70
2021/10/15 06:37:19;;;;;;;13.02;8.55;;;10.50;99.90;;;;;;5040822;28;20398;-70
2021/10/15 06:39:51;;;;;;;33.22;10.35;;;10.50;99.90;;;;;;5061166;28;20048;-70
2021/10/15 06:42:19;;;;;;;15.43;9.55;;;10.50;99.90;;;;;;5048533;28;20100;-71
2021/10/15 06:44:45;;;;;;;25.27;11.02;;;10.50;99.90;;;;;;5044371;28;20058;-71
2021/10/15 06:47:13;;;;;;;15.70;9.70;;;10.50;99.90;;;;;;5041847;28;20416;-70
2021/10/15 06:49:39;;;;;;;12.98;8.40;;;10.50;99.90;;;;;;5060811;28;20475;-72
2021/10/15 06:52:06;;;;;;;14.95;10.18;;;10.50;99.90;;;;;;5061043;28;20044;-69
2021/10/15 06:54:33;;;;;;;19.90;10.10;;;10.50;99.90;;;;;;5047792;28;20448;-71
2021/10/15 06:57:00;;;;;;;13.63;9.65;;;10.50;99.90;;;;;;5060692;28;20083;-70
2021/10/15 06:59:27;;;;;;;17.13;9.73;;;10.50;99.90;;;;;;5059621;28;20463;-71
2021/10/15 07:01:54;;;;;;;20.13;9.73;;;10.60;99.90;;;;;;5042981;28;20454;-70
2021/10/15 07:04:22;;;;;;;16.42;10.25;;;10.60;99.90;;;;;;5060670;28;20161;-70
2021/10/15 07:06:48;;;;;;;14.80;9.60;;;10.60;99.90;;;;;;5041127;28;20071;-70
2021/10/15 07:09:15;;;;;;;16.85;9.82;;;10.60;99.90;;;;;;5051746;28;20093;-70
2021/10/15 07:11:44;;;;;;;15.32;10.20;;;10.60;99.90;;;;;;5027867;28;20101;-70
2021/10/15 07:14:11;;;;;;;16.65;10.77;;;10.60;99.90;;;;;;5044937;28;20324;-71
2021/10/15 07:16:38;;;;;;;16.65;10.05;;;10.60;99.90;;;;;;5043359;28;20419;-71
2021/10/15 07:19:05;;;;;;;19.58;9.75;;;10.70;99.90;;;;;;5058300;28;20131;-70
2021/10/15 07:21:32;;;;;;;16.80;9.40;;;10.70;99.90;;;;;;5055658;28;20041;-71
2021/10/15 07:24:00;;;;;;;16.63;10.45;;;10.70;99.90;;;;;;5050905;28;20044;-71
2021/10/15 07:26:26;;;;;;;23.10;10.27;;;10.70;99.90;;;;;;5053132;28;20071;-70
2021/10/15 07:28:53;;;;;;;13.55;9.73;;;10.70;99.90;;;;;;5026283;28;20050;-71
2021/10/15 07:31:21;;;;;;;19.05;9.93;;;10.80;99.90;;;;;;5048371;28;20364;-70
2021/10/15 07:33:48;;;;;;;16.23;9.23;;;10.80;99.90;;;;;;5050022;28;20139;-71
2021/10/15 07:36:16;;;;;;;18.35;10.32;;;10.80;99.90;;;;;;5084346;28;20097;-70
2021/10/15 07:38:43;;;;;;;18.80;10.95;;;10.80;99.90;;;;;;5059114;28;20429;-70
2021/10/15 07:41:11;;;;;;;15.35;10.63;;;10.80;99.90;;;;;;5079548;28;20278;-71
2021/10/15 07:43:38;;;;;;;21.25;11.60;;;10.80;99.90;;;;;;5064587;28;20148;-70
2021/10/15 07:46:05;;;;;;;15.98;10.38;;;10.90;99.90;;;;;;5048579;28;20040;-71
2021/10/15 07:48:32;;;;;;;14.75;9.95;;;10.90;99.90;;;;;;5044442;28;20105;-71
2021/10/15 07:50:59;;;;;;;14.73;9.98;;;10.90;99.90;;;;;;5065117;28;20055;-71
2021/10/15 07:53:26;;;;;;;18.73;10.18;;;10.90;99.90;;;;;;5066072;28;20526;-71
2021/10/15 07:55:53;;;;;;;10.27;8.40;;;10.90;99.90;;;;;;5074476;28;20093;-71
2021/10/15 07:58:21;;;;;;;16.55;11.05;;;11.00;99.90;;;;;;5031133;28;20117;-71
2021/10/15 08:00:48;;;;;;;17.38;11.05;;;11.00;99.90;;;;;;5046213;28;20040;-72
2021/10/15 08:03:15;;;;;;;14.18;9.73;;;11.10;99.90;;;;;;5048503;28;20143;-71
2021/10/15 08:05:42;;;;;;;20.52;10.40;;;11.00;99.90;;;;;;5063824;28;20078;-72
2021/10/15 08:08:10;;;;;;;20.27;10.48;;;11.10;99.90;;;;;;5048915;28;20062;-71
2021/10/15 08:10:39;;;;;;;17.88;10.25;;;11.10;99.90;;;;;;5044241;28;20044;-70
2021/10/15 08:13:06;;;;;;;14.77;10.20;;;11.20;99.90;;;;;;5048756;28;20044;-71
2021/10/15 08:15:33;;;;;;;14.07;9.13;;;11.10;99.90;;;;;;5048088;28;20074;-71
2021/10/15 08:18:00;;;;;;;14.20;9.00;;;11.20;99.90;;;;;;5043738;28;20127;-72
2021/10/15 08:20:27;;;;;;;18.35;11.00;;;11.20;99.90;;;;;;5063391;28;20048;-71
2021/10/15 08:22:54;;;;;;;14.65;9.02;;;11.20;99.90;;;;;;5030954;28;20202;-72
2021/10/15 08:25:28;;;;;;;14.82;9.52;;;11.20;99.90;;;;;;5048739;28;20051;-70
2021/10/15 08:27:56;;;;;;;13.07;8.70;;;11.30;99.90;;;;;;5028390;28;20052;-71
2021/10/15 08:30:27;;;;;;;15.02;8.68;;;11.30;99.90;;;;;;5028557;28;20052;-70
2021/10/15 08:32:54;;;;;;;22.65;10.85;;;11.30;99.90;;;;;;5045592;28;20040;-72
2021/10/15 08:35:22;;;;;;;16.67;9.00;;;11.30;99.90;;;;;;5059458;28;20140;-71
2021/10/15 08:37:51;;;;;;;15.20;7.97;;;11.30;99.90;;;;;;5041609;28;20072;-70
2021/10/15 08:40:19;;;;;;;17.27;8.75;;;11.30;99.90;;;;;;5054808;28;20037;-71
2021/10/15 08:42:48;;;;;;;19.00;9.73;;;11.30;99.90;;;;;;5066220;28;20138;-69
2021/10/15 08:45:16;;;;;;;17.88;11.15;;;11.40;99.90;;;;;;5048795;28;20047;-70
2021/10/15 08:47:43;;;;;;;16.23;9.35;;;11.30;99.90;;;;;;5047493;28;20055;-71
2021/10/15 08:50:31;;;;;;;17.42;10.43;;;11.30;99.90;;;;;;5067657;28;20043;-70
2021/10/15 08:52:58;;;;;;;17.65;11.25;;;11.30;99.90;;;;;;5068591;28;20071;-70
2021/10/15 08:55:25;;;;;;;17.30;11.50;;;11.20;99.90;;;;;;5085344;28;20043;-69
2021/10/15 08:57:54;;;;;;;18.05;12.65;;;11.00;99.90;;;;;;5065575;28;20060;-71
2021/10/15 09:00:27;;;;;;;;;;;10.90;99.90;;;;;;5048393;28;20130;-70
2021/10/15 09:03:20;;;;;;;27.65;15.13;;;10.80;99.90;;;;;;5047998;28;19978;-71
2021/10/15 09:06:07;;;;;;;26.48;17.02;;;10.70;99.90;;;;;;5062829;28;20098;-70
2021/10/15 09:08:48;;;;;;;26.83;15.57;;;10.70;99.90;;;;;;5046783;28;20048;-72
2021/10/15 09:11:25;;;;;;;27.65;15.15;;;10.60;99.90;;;;;;5045756;28;20051;-71
2021/10/15 09:14:11;;;;;;;28.25;18.13;;;10.50;99.90;;;;;;5048476;28;20044;-71
2021/10/15 09:16:59;;;;;;;34.95;20.45;;;10.40;99.90;;;;;;5044261;28;20105;-76
2021/10/15 09:19:34;;;;;;;36.80;20.05;;;10.40;99.90;;;;;;5061602;28;20071;-74
2021/10/15 09:22:20;;;;;;;36.53;22.48;;;10.40;99.90;;;;;;5042560;28;20191;-75
2021/10/15 09:24:53;;;;;;;37.03;21.45;;;10.40;99.90;;;;;;5028924;28;20048;-77
2021/10/15 09:27:20;;;;;;;33.38;20.80;;;10.40;99.90;;;;;;5044232;28;20094;-78
2021/10/15 09:29:52;;;;;;;44.47;23.98;;;10.30;99.90;;;;;;5044644;28;20044;-75
2021/10/15 09:32:23;;;;;;;40.17;24.95;;;10.30;99.90;;;;;;5047192;28;20089;-73
2021/10/15 09:34:50;;;;;;;39.58;24.25;;;10.30;99.90;;;;;;5064666;28;20348;-74
2021/10/15 09:37:20;;;;;;;49.25;27.40;;;10.20;99.90;;;;;;5029824;28;20055;-75
2021/10/15 09:39:48;;;;;;;44.38;27.70;;;10.20;99.90;;;;;;5068801;28;20056;-77
2021/10/15 09:42:19;;;;;;;43.70;28.25;;;10.20;99.90;;;;;;5046819;28;20048;-76
2021/10/15 09:44:46;;;;;;;47.83;27.33;;;10.20;99.90;;;;;;5046034;28;20040;-75
2021/10/15 09:47:26;;;;;;;39.63;25.52;;;10.20;99.90;;;;;;5028702;28;20144;-76
2021/10/15 09:50:01;;;;;;;44.55;27.52;;;10.20;99.90;;;;;;5043304;28;20036;-74
2021/10/15 09:52:49;;;;;;;44.67;28.38;;;10.20;99.90;;;;;;5063885;28;20354;-74
2021/10/15 09:55:20;;;;;;;38.38;27.55;;;10.30;99.90;;;;;;5048680;28;20102;-75
2021/10/15 09:57:50;;;;;;;46.85;30.85;;;10.30;99.90;;;;;;5048480;28;20063;-76
2021/10/15 10:00:31;;;;;;;42.65;29.42;;;10.40;99.90;;;;;;5059159;28;20400;-75
2021/10/15 10:02:58;;;;;;;44.30;29.40;;;10.30;99.90;;;;;;5045000;28;20040;-76
2021/10/15 10:05:26;;;;;;;45.78;29.30;;;10.30;99.90;;;;;;5064002;28;20058;-76
2021/10/15 10:07:55;;;;;;;37.55;26.42;;;10.30;99.90;;;;;;5062702;28;20045;-77
2021/10/15 10:10:24;;;;;;;43.30;28.90;;;10.30;99.90;;;;;;5057552;28;20437;-75
2021/10/15 10:12:53;;;;;;;42.17;26.38;;;10.20;99.90;;;;;;5048262;28;20121;-76
2021/10/15 10:15:22;;;;;;;12.70;10.20;;;10.20;99.90;;;;;;5045965;28;20046;-73
2021/10/15 10:17:58;;;;;;;8.32;6.70;;;10.00;99.90;;;;;;5048584;28;20040;-75
2021/10/15 10:20:29;;;;;;;7.07;6.25;;;9.80;99.90;;;;;;5045428;28;20107;-77
2021/10/15 10:23:07;;;;;;;8.63;5.78;;;9.80;99.90;;;;;;5064091;28;20040;-76
2021/10/15 10:25:35;;;;;;;9.32;7.38;;;9.80;99.90;;;;;;5031859;28;20135;-79
2021/10/15 10:28:14;;;;;;;11.95;8.93;;;10.00;99.90;;;;;;5048388;28;20378;-76
2021/10/15 10:30:44;;;;;;;14.30;8.30;;;10.10;99.90;;;;;;5030806;28;20074;-79
2021/10/15 10:33:12;;;;;;;9.48;7.65;;;10.10;99.90;;;;;;5048790;28;20078;-75
2021/10/15 10:35:39;;;;;;;9.50;7.60;;;10.10;99.90;;;;;;5045345;28;20093;-77
2021/10/15 10:38:19;;;;;;;8.95;7.15;;;10.10;99.90;;;;;;5026797;28;20044;-75
2021/10/15 10:40:59;;;;;;;9.00;6.47;;;10.10;99.90;;;;;;5041220;28;20358;-74
2021/10/15 10:43:31;;;;;;;9.18;6.78;;;10.10;99.90;;;;;;5023254;28;20276;-74
2021/10/15 10:46:18;;;;;;;8.73;6.60;;;10.20;99.90;;;;;;5019355;28;20057;-74
2021/10/15 10:48:50;;;;;;;12.10;8.85;;;10.30;99.90;;;;;;5024121;28;20650;-72
2021/10/15 10:51:26;;;;;;;10.32;7.95;;;10.40;99.90;;;;;;4999788;28;20201;-72
2021/10/15 10:53:59;;;;;;;6.63;5.63;;;10.70;99.90;;;;;;5061931;28;20048;-73
2021/10/15 10:56:49;;;;;;;9.93;5.53;;;10.70;99.90;;;;;;5042128;28;20067;-73
2021/10/15 10:59:22;;;;;;;5.15;4.45;;;10.80;99.90;;;;;;5060940;28;20051;-74
2021/10/15 11:01:55;;;;;;;6.38;3.97;;;10.90;99.90;;;;;;5048550;28;20412;-74
2021/10/15 11:04:30;;;;;;;6.65;4.18;;;10.80;99.90;;;;;;5054906;28;20477;-73
2021/10/15 11:06:59;;;;;;;5.50;5.00;;;10.70;99.90;;;;;;5039167;28;20136;-74
2021/10/15 11:09:36;;;;;;;4.88;4.38;;;10.80;99.90;;;;;;5024507;28;20075;-74
2021/10/15 11:12:03;;;;;;;4.80;3.95;;;10.80;99.90;;;;;;5040487;28;20075;-75
2021/10/15 11:15:04;;;;;;;3.90;3.55;;;10.70;99.90;;;;;;5026949;28;20048;-74
2021/10/15 11:17:35;;;;;;;3.83;3.50;;;10.50;99.90;;;;;;5039089;28;20068;-74
2021/10/15 11:20:22;;;;;;;5.93;4.47;;;10.40;99.90;;;;;;5044091;28;20091;-73
2021/10/15 11:22:58;;;;;;;4.28;3.60;;;10.40;99.90;;;;;;5024814;28;20060;-73
2021/10/15 11:25:35;;;;;;;6.25;3.78;;;10.30;99.90;;;;;;5027911;28;20061;-75
2021/10/15 11:28:06;;;;;;;3.53;3.23;;;10.20;99.90;;;;;;5043668;28;20288;-73
2021/10/15 11:30:35;;;;;;;5.40;4.00;;;10.30;99.90;;;;;;5040745;28;20049;-73
2021/10/15 11:33:06;;;;;;;4.63;3.65;;;10.30;99.90;;;;;;5037239;28;20354;-71
2021/10/15 11:35:35;;;;;;;6.65;5.53;;;10.30;99.90;;;;;;5036561;28;20514;-70
2021/10/15 11:38:19;;;;;;;5.88;4.03;;;10.50;99.90;;;;;;5056826;28;20388;-71
2021/10/15 11:40:49;;;;;;;6.33;5.03;;;10.80;99.90;;;;;;5042110;28;20075;-73
2021/10/15 11:43:32;;;;;;;5.72;5.00;;;10.90;99.90;;;;;;5060952;28;20642;-73
2021/10/15 11:46:07;;;;;;;5.25;3.95;;;11.00;99.90;;;;;;5059382;28;20054;-71
2021/10/15 11:48:49;;;;;;;3.05;2.35;;;11.00;99.90;;;;;;5042686;28;20083;-71
2021/10/15 11:51:24;;;;;;;4.00;2.70;;;10.90;99.90;;;;;;5060745;28;20056;-72
2021/10/15 11:53:59;;;;;;;3.78;2.50;;;10.80;99.90;;;;;;5044513;28;20048;-70
2021/10/15 11:56:34;;;;;;;3.97;2.03;;;10.80;99.90;;;;;;5059020;28;20048;-72
2021/10/15 11:59:06;;;;;;;4.20;1.92;;;10.60;99.90;;;;;;5060991;28;20052;-71
2021/10/15 12:01:35;;;;;;;2.55;1.92;;;10.50;99.90;;;;;;5059606;28;20082;-71
2021/10/15 12:04:05;;;;;;;2.28;1.50;;;10.80;99.90;;;;;;5065065;28;20073;-71
2021/10/15 12:06:39;;;;;;;5.68;1.85;;;11.00;99.90;;;;;;5045046;28;20052;-72
2021/10/15 12:09:12;;;;;;;3.47;2.28;;;11.00;99.90;;;;;;5042727;28;20036;-71
2021/10/15 12:11:40;;;;;;;4.93;2.22;;;11.00;99.90;;;;;;5058635;28;20425;-70
2021/10/15 12:14:13;;;;;;;6.93;2.63;;;11.00;99.90;;;;;;5044903;28;20119;-70
2021/10/15 12:16:40;;;;;;;4.18;2.58;;;10.80;99.90;;;;;;5063036;28;20048;-71
2021/10/15 12:19:11;;;;;;;4.20;2.45;;;10.80;99.90;;;;;;5043870;28;20044;-71
2021/10/15 12:21:44;;;;;;;2.85;2.15;;;11.20;99.90;;;;;;5030080;28;20139;-71
2021/10/15 12:24:25;;;;;;;3.10;1.80;;;11.40;99.90;;;;;;5064175;28;20040;-71
2021/10/15 12:27:12;;;;;;;5.05;2.00;;;11.40;99.90;;;;;;5082623;28;20519;-72
2021/10/15 12:30:00;;;;;;;2.70;1.83;;;11.30;99.90;;;;;;5063162;28;20112;-72
2021/10/15 12:32:38;;;;;;;4.82;2.53;;;11.30;99.90;;;;;;5024751;28;20556;-72
2021/10/15 12:35:20;;;;;;;4.13;1.80;;;11.30;99.90;;;;;;5044076;28;20460;-72
2021/10/15 12:37:59;;;;;;;8.60;2.08;;;11.60;99.90;;;;;;5027501;28;20049;-72
2021/10/15 12:40:32;;;;;;;3.47;1.52;;;11.60;99.90;;;;;;5038268;28;20194;-71
2021/10/15 12:43:02;;;;;;;6.47;1.77;;;11.50;99.90;;;;;;5048910;28;20047;-71
2021/10/15 12:45:32;;;;;;;5.35;1.92;;;11.60;99.90;;;;;;5061957;28;20063;-72
2021/10/15 12:48:04;;;;;;;3.70;1.77;;;11.70;99.90;;;;;;5045297;28;20051;-72
2021/10/15 12:50:34;;;;;;;2.88;1.60;;;11.90;99.90;;;;;;5046098;28;20195;-71
2021/10/15 12:53:15;;;;;;;5.93;2.10;;;12.10;99.90;;;;;;5069422;28;20055;-71
2021/10/15 12:55:59;;;;;;;7.82;2.72;;;12.30;99.90;;;;;;5048606;28;20043;-72
2021/10/15 12:58:28;;;;;;;6.15;2.00;;;12.50;99.90;;;;;;5062668;28;20426;-71